Twin Lakes, Wisconsin
Current Conditions -  °F | °C
As of 2:15 AM on Friday 24 Oct 2014 (Local Time) from KBUU Reporting Station
Haze Haze  
Wind Chill: 48°   Ceiling: 1300
Heat Index: 48°   Visibility: 4mi
Dew Point: 47°   Wind: 0mph
Humidity: 99%   Direction: NA
Pressure: 30.03"   Gusts: NA
Location:  42.53°N, 88.25°W
Report Text: KBUU 240715Z AUTO 00000KT 4SM BR OVC013 09/09 A3003 RMK AO2 T00870085
Loading
Personal Weather Stations






























Interactive Weather Map
Tropical Storm Tracking
New forecast layout! Learn more

10-Day Weather Forecast

Advertisements
Track Severe Weather on mobile